This demonstration page uses our WeatherBlox Daily Observations layout. Learn more.

41.86663, -103.66717

Hourly Observations for June 29, 2019

Temp ( °F °C ) Dew Point ( °F °C ) Humidity (%) Winds ( mph kmh ) Pressure ( in mb ) Visibility ( mi km ) Precip ( " mm )
12:53 am 00:53 Clear 70 21.1 64 17.8 82 82 E 7 11 29.9 1013 10 16.0934 0 0
1:53 am 01:53 Clear 68 20 63 17.2 84 84 E 7 11 29.88 1012 10 16.0934 0 0
2:53 am 02:53 Clear 67 19.4 63 17.2 87 87 ESE 3 6 29.9 1012 10 16.0934 0 0
3:53 am 03:53 Clear 65 18.3 62 16.7 90 90 NNE 6 9 29.9 1013 10 16.0934 0 0
4:53 am 04:53 Clear 64 17.8 62 16.7 93 93 NNE 6 9 29.89 1012 10 16.0934 0 0
5:53 am 05:53 Sunny 64 17.8 61 16.1 90 90 NNE 6 9 29.9 1013 10 16.0934 0 0
6:53 am 06:53 Sunny 70 21.1 64 17.8 82 82 Calm 29.89 1012 10 16.0934 0 0
7:53 am 07:53 Sunny 72 22.2 67 19.4 84 84 S 3 6 29.9 1012 10 16.0934 0 0
8:53 am 08:53 Sunny 78 25.6 70 21.1 76 76 Calm 29.92 1013 10 16.0934 0 0
9:53 am 09:53 Sunny 84 28.9 76 24.4 77 77 VRB 3 6 29.91 1013 10 16.0934 0 0
10:53 am 10:53 Sunny 88 31.1 80 26.7 77 77 Calm 29.9 1013 10 16.0934 0 0
11:53 am 11:53 Sunny 93 34 N/A N/A W 6 9 29.9 1013 10 16.0934 0 0
12:53 pm 12:53 Sunny 97 36 N/A N/A WSW 7 11 29.89 1012 10 16.0934 0 0
1:53 pm 13:53 Sunny 99 37 N/A N/A NNW 9 15 29.88 1012 10 16.0934 0 0
2:53 pm 14:53 Sunny 99 37 N/A N/A N 8 13 29.87 1011 10 16.0934 0 0
3:53 pm 15:53 Sunny 95 35 N/A N/A NE 3 6 29.86 1011 10 16.0934 0 0
4:53 pm 16:53 Mostly Sunny 90 32.2 82 27.8 78 78 E 5 7 29.88 1012 10 16.0934 0 0
5:32 pm 17:32 Partly Cloudy 87 30.6 78 25.6 75 75 SW 10 17 29.7 1006 10 16.0934 0 0
5:53 pm 17:53 Mostly Sunny 86 30 76 24.4 72 72 W 8 13 29.91 1013 10 16.0934 0 0
6:53 pm 18:53 Sunny 85 29.4 77 25 77 77 NNE 10 17 29.89 1012 10 16.0934 0 0
7:53 pm 19:53 Mostly Sunny 79 26.1 69 20.6 72 72 NNE 10 17 29.9 1013 10 16.0934 0 0.0254
8:53 pm 20:53 Clear 75 23.9 65 18.3 71 71 ENE 6 9 29.89 1012 10 16.0934 0 0
9:53 pm 21:53 undefined 76 24.4 65 18.3 69 69 SSE 10 17 29.94 1014 10 16.0934 0 0
10:53 pm 22:53 Partly Cloudy 74 23.3 63 17.2 69 69 E 7 11 29.95 1014 10 16.0934 0 0
11:53 pm 23:53 Clear 71 21.7 63 17.2 76 76 NNW 8 13 29.94 1014 10 16.0934 0 0

Powered by AerisWeather